Time;durP1;ratioP1;P1;durP2;ratioP2;P2;SDS_P1;SDS_P2;PMS_P1;PMS_P2;Temp;Humidity;BMP_temperature;BMP_pressure;BME280_temperature;BME280_humidity;BME280_pressure;Samples;Min_cycle;Max_cycle;Signal;HPM_P1;HPM_P2
2023/05/06 00:04:43;;;;;;;5.20;3.40;;;12.60;98.10;;;11.28;78.51;100273.22;10421992;27;98453;-84
2023/05/06 00:09:47;;;;;;;5.40;4.00;;;12.50;98.60;;;11.25;78.66;100266.41;10409698;27;97475;-84
2023/05/06 00:14:50;;;;;;;4.57;3.13;;;12.50;98.80;;;11.25;78.95;100271.72;10438849;27;96662;-84
2023/05/06 00:19:55;;;;;;;4.93;3.30;;;12.50;99.40;;;11.26;79.18;100276.88;10409602;28;96788;-84
2023/05/06 00:24:58;;;;;;;4.37;3.20;;;12.50;99.40;;;11.29;78.85;100278.38;10443591;27;98119;-84
2023/05/06 00:30:01;;;;;;;4.07;3.07;;;12.60;99.40;;;11.28;78.80;100276.72;10405793;27;96675;-84
2023/05/06 00:35:05;;;;;;;3.83;3.17;;;12.60;99.50;;;11.26;78.39;100271.53;10428061;27;96972;-84
2023/05/06 00:40:09;;;;;;;5.00;4.13;;;12.60;99.40;;;11.24;78.36;100278.03;10412525;27;96578;-84
2023/05/06 00:45:12;;;;;;;6.03;4.40;;;12.60;99.50;;;11.19;78.65;100273.22;10427660;27;96720;-85
2023/05/06 00:50:16;;;;;;;6.10;4.23;;;12.50;99.60;;;11.13;78.38;100268.59;10394778;27;96962;-85
2023/05/06 00:55:20;;;;;;;6.23;3.80;;;12.40;99.80;;;11.06;78.87;100264.13;10451289;27;96605;-84
2023/05/06 01:00:23;;;;;;;6.37;3.97;;;12.40;99.90;;;10.98;78.77;100267.63;10408889;27;97427;-84
2023/05/06 01:05:51;;;;;;;6.00;4.53;;;12.30;99.90;;;10.92;79.06;100266.47;10391723;27;98663;-84
2023/05/06 01:11:13;;;;;;;5.10;3.80;;;12.20;99.90;;;10.84;78.96;100263.81;10426571;27;97085;-85
2023/05/06 01:16:22;;;;;;;5.63;3.60;;;12.20;99.90;;;10.78;79.07;100261.81;10420027;27;97882;-84
2023/05/06 01:21:33;;;;;;;7.33;3.90;;;12.10;99.90;;;10.68;79.80;100254.03;10429749;27;96676;-84
2023/05/06 01:26:36;;;;;;;5.63;4.07;;;12.10;99.90;;;10.62;80.03;100253.88;10420618;27;96647;-85
2023/05/06 01:31:49;;;;;;;5.70;4.47;;;11.90;99.90;;;10.49;81.95;100261.50;10411910;27;96592;-84
2023/05/06 01:37:20;;;;;;;10.07;5.40;;;11.80;99.90;;;10.40;82.99;100256.19;10431502;27;96611;-84
2023/05/06 01:42:24;;;;;;;6.93;4.30;;;11.70;99.90;;;10.42;83.08;100250.72;10422850;27;97577;-84
2023/05/06 01:47:27;;;;;;;6.70;3.80;;;11.70;99.90;;;10.43;83.01;100247.91;10403739;27;98606;-84
2023/05/06 01:52:30;;;;;;;5.77;4.20;;;11.70;99.90;;;10.40;82.90;100240.25;10424718;27;96678;-84
2023/05/06 01:57:34;;;;;;;5.93;4.07;;;11.70;99.90;;;10.39;83.00;100243.09;10382509;28;96756;-84
2023/05/06 02:02:37;;;;;;;6.27;4.43;;;11.70;99.90;;;10.34;82.90;100251.53;10435375;27;98629;-83
2023/05/06 02:07:40;;;;;;;5.20;3.80;;;11.70;99.90;;;10.29;83.45;100253.03;10400840;27;96613;-84
2023/05/06 02:12:43;;;;;;;6.43;3.97;;;11.60;99.90;;;10.28;83.51;100246.06;10423736;27;97272;-84
2023/05/06 02:17:46;;;;;;;6.20;4.80;;;11.60;99.90;;;10.19;83.58;100248.69;10410512;27;96939;-85
2023/05/06 02:22:49;;;;;;;6.70;4.27;;;11.50;99.90;;;10.13;84.11;100254.63;10402678;27;96586;-84
2023/05/06 02:27:52;;;;;;;5.07;4.20;;;11.50;99.90;;;10.12;84.31;100254.78;10429264;27;96551;-83
2023/05/06 02:32:56;;;;;;;5.90;3.90;;;11.40;99.90;;;10.05;84.52;100257.28;10382180;27;98437;-83
2023/05/06 02:38:00;;;;;;;6.17;3.80;;;11.40;99.90;;;10.04;84.64;100255.63;10428605;27;98326;-83
2023/05/06 02:43:03;;;;;;;7.00;5.00;;;11.40;99.90;;;10.07;84.85;100259.75;10418568;27;98269;-84
2023/05/06 02:48:06;;;;;;;7.40;5.50;;;11.40;99.90;;;10.09;85.02;100260.44;10432963;27;97512;-83
2023/05/06 02:53:11;;;;;;;7.20;4.60;;;11.40;99.90;;;10.13;84.97;100265.25;10367670;27;96438;-84
2023/05/06 02:58:14;;;;;;;8.47;4.93;;;11.50;99.90;;;10.17;85.07;100271.06;10401738;27;96639;-83
2023/05/06 03:03:17;;;;;;;10.80;6.73;;;11.50;99.90;;;10.15;84.87;100265.94;10438279;27;98845;-84
2023/05/06 03:08:21;;;;;;;10.17;5.77;;;11.50;99.90;;;10.15;84.70;100263.28;10377059;27;96527;-84
2023/05/06 03:13:23;;;;;;;6.37;4.83;;;11.50;99.90;;;10.09;84.46;100253.31;10405471;27;98485;-84
2023/05/06 03:18:26;;;;;;;6.50;4.23;;;11.50;99.90;;;10.04;84.65;100262.75;10425322;27;96563;-84
2023/05/06 03:23:29;;;;;;;7.93;5.40;;;11.40;99.90;;;9.97;84.77;100256.44;10407965;27;96759;-84
2023/05/06 03:28:33;;;;;;;8.07;5.10;;;11.30;99.90;;;9.93;84.89;100254.09;10390960;28;96944;-84
2023/05/06 03:33:36;;;;;;;10.30;5.80;;;11.30;99.90;;;9.85;85.15;100240.81;10412093;27;96787;-84
2023/05/06 03:38:40;;;;;;;9.43;6.30;;;11.20;99.90;;;9.85;85.58;100235.50;10405578;27;96609;-84
2023/05/06 03:43:43;;;;;;;7.27;4.80;;;11.10;99.90;;;9.83;85.69;100240.13;10411527;27;97523;-84
2023/05/06 03:48:46;;;;;;;7.17;5.03;;;11.20;99.90;;;9.79;85.75;100244.13;10402930;27;96665;-84
2023/05/06 03:53:49;;;;;;;7.83;5.17;;;11.10;99.90;;;9.82;86.57;100261.53;10403735;27;96509;-85
2023/05/06 03:58:55;;;;;;;7.57;4.97;;;11.10;99.90;;;9.83;86.81;100258.69;10411870;28;96505;-85
2023/05/06 04:03:58;;;;;;;6.87;4.97;;;11.20;99.90;;;9.90;87.22;100266.88;10408347;27;98482;-85
2023/05/06 04:09:05;;;;;;;6.17;4.87;;;11.20;99.90;;;9.98;87.86;100277.50;10422172;27;97409;-85
2023/05/06 04:14:08;;;;;;;7.23;5.27;;;11.30;99.90;;;10.07;88.13;100265.91;10401153;27;97752;-84
2023/05/06 04:19:11;;;;;;;8.33;5.70;;;11.40;99.90;;;10.20;88.27;100281.38;10394887;28;96482;-84
2023/05/06 04:24:17;;;;;;;10.90;6.30;;;11.50;99.90;;;10.28;87.81;100270.78;10427325;27;98213;-84
2023/05/06 04:29:20;;;;;;;10.27;6.13;;;11.50;99.90;;;10.42;88.29;100269.31;10421292;27;96453;-84
2023/05/06 04:34:23;;;;;;;9.07;6.10;;;11.70;99.90;;;10.63;88.37;100271.47;10478064;27;97680;-84
2023/05/06 04:39:27;;;;;;;10.37;6.30;;;11.90;99.90;;;10.78;88.36;100256.50;10441302;27;96646;-84
2023/05/06 04:44:32;;;;;;;6.27;4.90;;;12.10;99.90;;;11.10;88.43;100268.94;10440928;27;96704;-84
2023/05/06 04:49:35;;;;;;;6.13;4.50;;;12.40;99.90;;;11.38;88.26;100273.84;10421640;27;96797;-84
2023/05/06 04:54:38;;;;;;;6.23;4.17;;;12.60;99.90;;;11.62;88.18;100283.56;10406113;27;96942;-83
2023/05/06 04:59:41;;;;;;;6.00;4.53;;;12.90;99.90;;;11.86;87.88;100294.13;10427438;27;96641;-85
2023/05/06 05:04:44;;;;;;;6.30;4.87;;;13.20;99.90;;;12.01;86.96;100296.91;10427535;27;98106;-85
2023/05/06 05:09:48;;;;;;;5.70;4.23;;;13.30;99.90;;;12.13;86.27;100298.19;10439349;27;97319;-85
2023/05/06 05:14:51;;;;;;;7.77;3.40;;;13.40;99.90;;;12.25;85.91;100295.94;10430362;27;96629;-86
2023/05/06 05:19:54;;;;;;;6.73;4.40;;;13.60;99.90;;;12.36;85.23;100303.53;10434590;27;98576;-85
2023/05/06 05:24:57;;;;;;;6.07;4.40;;;13.70;99.90;;;12.42;84.48;100296.66;10437064;27;96591;-85
2023/05/06 05:30:00;;;;;;;6.07;4.63;;;13.70;99.90;;;12.52;84.18;100294.56;10404125;27;97566;-84
2023/05/06 05:35:04;;;;;;;7.30;5.23;;;13.80;99.90;;;12.66;84.19;100295.66;10419371;27;96518;-85
2023/05/06 05:40:08;;;;;;;9.47;6.23;;;14.00;99.90;;;12.86;84.50;100289.63;10423277;27;96737;-86
2023/05/06 05:45:11;;;;;;;7.37;5.40;;;14.10;99.90;;;13.12;84.28;100288.38;10434993;27;97010;-84
2023/05/06 05:50:14;;;;;;;8.73;6.28;;;14.40;99.90;;;13.39;83.47;100286.97;10419973;27;96590;-86
2023/05/06 05:55:17;;;;;;;6.32;3.85;;;14.60;99.90;;;13.66;81.66;100288.16;10435472;27;96605;-86
2023/05/06 06:00:20;;;;;;;5.32;3.95;;;14.90;99.90;;;13.88;79.32;100284.53;10457085;27;98018;-87
2023/05/06 06:05:23;;;;;;;5.85;4.50;;;15.20;99.90;;;14.15;77.73;100282.16;10401471;27;97401;-86
2023/05/06 06:10:26;;;;;;;9.35;5.10;;;15.40;99.90;;;14.47;75.90;100288.09;10410206;27;98413;-87
2023/05/06 06:15:30;;;;;;;4.93;3.90;;;15.70;99.90;;;14.77;75.27;100278.06;10383206;27;96577;-86
2023/05/06 06:20:34;;;;;;;6.20;4.63;;;16.00;99.90;;;15.11;74.04;100277.28;10412632;27;98598;-87
2023/05/06 06:25:37;;;;;;;8.27;5.38;;;16.40;99.90;;;15.21;71.60;100275.91;10418621;27;98112;-87
2023/05/06 06:30:40;;;;;;;7.20;5.50;;;16.60;99.90;;;15.38;71.17;100280.97;10418953;27;96626;-86
2023/05/06 06:35:43;;;;;;;9.88;5.13;;;16.70;99.90;;;15.53;70.65;100269.13;10443280;27;97357;-87
2023/05/06 06:40:46;;;;;;;7.25;4.40;;;16.90;99.90;;;15.80;70.75;100277.31;10421923;27;96633;-87
2023/05/06 06:45:50;;;;;;;6.20;4.85;;;17.10;99.90;;;16.08;70.74;100274.53;10414403;27;96484;-88
2023/05/06 06:50:53;;;;;;;8.23;5.32;;;17.40;99.90;;;16.20;69.55;100270.22;10471084;27;97145;-87
2023/05/06 06:55:55;;;;;;;6.05;4.13;;;17.50;99.80;;;16.28;69.24;100267.34;10463418;27;96759;-87
2023/05/06 07:00:59;;;;;;;7.00;4.15;;;17.50;99.50;;;16.45;69.15;100269.66;10397398;27;96804;-87
2023/05/06 07:06:02;;;;;;;9.38;5.22;;;17.70;99.40;;;16.54;67.62;100269.22;10405928;27;96763;-88
2023/05/06 07:11:05;;;;;;;6.25;5.10;;;17.80;98.90;;;16.77;65.87;100260.81;10390715;27;96586;-90
2023/05/06 07:16:08;;;;;;;6.22;5.13;;;18.00;98.20;;;17.02;65.72;100263.69;10437984;27;97509;-90
2023/05/06 07:21:11;;;;;;;6.03;4.70;;;18.20;98.00;;;17.30;64.60;100255.38;10440155;27;96558;-90
2023/05/06 07:26:14;;;;;;;7.30;5.00;;;18.50;97.40;;;17.57;63.88;100266.88;10410985;27;96605;-88
2023/05/06 07:31:19;;;;;;;8.40;5.57;;;18.80;96.90;;;17.79;61.81;100259.38;10408327;27;96494;-89
2023/05/06 07:36:23;;;;;;;6.80;4.90;;;19.10;96.10;;;17.95;61.59;100254.56;10446308;27;96680;-88
2023/05/06 07:41:26;;;;;;;5.63;4.85;;;19.20;95.60;;;18.09;61.13;100264.19;10414049;27;98540;-88
2023/05/06 07:46:30;;;;;;;6.43;5.03;;;19.40;95.10;;;18.34;61.63;100250.81;10420025;27;96939;-89
2023/05/06 07:51:33;;;;;;;7.60;4.30;;;19.60;94.80;;;18.48;60.28;100255.06;10453513;27;98615;-87
2023/05/06 07:56:36;;;;;;;7.65;4.85;;;19.80;94.20;;;18.61;59.57;100246.88;10431479;27;96736;-86
2023/05/06 08:01:39;;;;;;;5.22;4.53;;;19.90;93.60;;;18.79;59.38;100251.53;10447080;27;97427;-88
2023/05/06 08:06:42;;;;;;;5.95;4.38;;;20.10;93.20;;;18.99;59.18;100260.25;10428048;27;98231;-88
2023/05/06 08:11:45;;;;;;;7.13;5.07;;;20.20;92.90;;;19.15;58.72;100247.25;10429322;27;98344;-89
2023/05/06 08:16:49;;;;;;;6.85;4.95;;;20.40;92.60;;;19.24;58.86;100262.91;10424169;27;96706;-90
2023/05/06 08:21:54;;;;;;;5.82;4.70;;;20.50;92.30;;;19.42;58.60;100251.31;10467049;27;97976;-89
2023/05/06 08:26:57;;;;;;;6.60;4.60;;;20.70;92.10;;;19.73;58.60;100249.53;10400381;27;98490;-91
2023/05/06 08:32:00;;;;;;;6.72;4.28;;;20.90;92.10;;;20.08;57.70;100257.78;10402494;27;98532;-89
2023/05/06 08:37:03;;;;;;;6.10;4.90;;;21.30;91.70;;;20.38;56.82;100262.34;10427479;27;97564;-90
2023/05/06 08:42:10;;;;;;;6.10;4.97;;;21.60;91.10;;;20.58;55.29;100250.22;10452889;27;96507;-89
2023/05/06 08:47:13;;;;;;;6.30;5.43;;;21.90;90.40;;;20.79;54.51;100242.59;10456139;27;96516;-89
2023/05/06 08:52:18;;;;;;;7.90;5.45;;;22.10;89.30;;;20.67;54.19;100236.38;10419003;28;96489;-90
2023/05/06 08:57:21;;;;;;;6.35;5.30;;;22.00;87.80;;;20.68;54.65;100229.91;10402868;27;96518;-90
2023/05/06 09:02:25;;;;;;;8.32;5.68;;;22.00;87.70;;;20.85;54.14;100238.97;10459253;27;96451;-90
2023/05/06 09:07:28;;;;;;;8.50;5.35;;;22.10;87.10;;;21.15;54.32;100228.03;10410563;27;96621;-89
2023/05/06 09:12:36;;;;;;;8.35;5.55;;;22.30;86.90;;;21.50;53.17;100225.31;10421009;27;96565;-90
2023/05/06 09:17:39;;;;;;;5.85;4.60;;;22.70;86.30;;;21.85;52.87;100213.56;10481492;27;96571;-88
2023/05/06 09:22:43;;;;;;;6.88;5.90;;;23.00;84.90;;;21.87;50.81;100209.53;10446861;27;96592;-89
2023/05/06 09:27:46;;;;;;;6.97;4.95;;;23.20;82.50;;;22.08;51.61;100208.06;10399383;27;96808;-88
2023/05/06 09:32:51;;;;;;;8.10;4.95;;;23.30;82.10;;;22.41;51.07;100204.59;10455532;27;96778;-88
2023/05/06 09:37:55;;;;;;;11.50;5.53;;;23.70;81.90;;;22.55;49.26;100190.72;10432719;27;96463;-88
2023/05/06 09:43:02;;;;;;;5.80;4.30;;;23.90;79.20;;;22.80;49.56;100187.59;10368590;28;96587;-88
2023/05/06 09:48:07;;;;;;;4.35;3.55;;;24.00;79.00;;;23.21;47.28;100179.00;10390855;27;96842;-89
2023/05/06 09:53:12;;;;;;;4.63;4.00;;;24.40;76.90;;;23.35;45.05;100174.00;10463963;27;96905;-88
2023/05/06 09:58:16;;;;;;;5.32;4.25;;;24.60;73.70;;;23.38;45.52;100172.66;10467430;27;96603;-90
2023/05/06 10:03:21;;;;;;;4.55;3.65;;;24.50;72.70;;;23.42;43.22;100160.25;10458066;27;96652;-89
2023/05/06 10:08:25;;;;;;;5.00;3.72;;;24.50;71.30;;;23.18;42.55;100156.97;10442988;27;96582;-89
2023/05/06 10:13:29;;;;;;;4.97;3.63;;;24.40;69.00;;;23.03;43.03;100144.06;10439332;27;97855;-89
2023/05/06 10:18:35;;;;;;;5.85;3.88;;;24.30;68.30;;;23.01;43.44;100151.59;10422533;27;97526;-90
2023/05/06 10:24:10;;;;;;;4.72;3.60;;;24.20;68.40;;;22.90;43.17;100139.78;10427537;27;97014;-89
2023/05/06 10:29:13;;;;;;;5.28;4.25;;;24.10;67.90;;;22.79;43.75;100139.88;10391172;27;97825;-90
2023/05/06 10:34:20;;;;;;;5.38;3.47;;;24.00;68.00;;;22.68;43.54;100126.22;10430036;27;97178;-89
2023/05/06 10:39:24;;;;;;;5.53;3.75;;;23.90;67.80;;;22.74;44.16;100132.53;10442041;27;97317;-89
2023/05/06 10:44:56;;;;;;;7.15;3.90;;;24.00;68.10;;;22.94;43.15;100123.88;10429838;27;97259;-88
2023/05/06 10:50:32;;;;;;;4.13;3.28;;;24.10;67.40;;;23.59;43.80;100116.78;10434919;27;96896;-89
2023/05/06 10:55:39;;;;;;;4.20;3.28;;;24.70;68.10;;;23.75;42.03;100108.56;10390722;27;98563;-90
2023/05/06 11:00:55;;;;;;;4.25;3.33;;;25.10;65.70;;;23.75;41.43;100105.03;10434776;27;98670;-90
2023/05/06 11:05:59;;;;;;;4.63;2.97;;;25.10;64.90;;;23.90;40.43;100102.44;10423659;27;98151;-88
2023/05/06 11:11:46;;;;;;;2.80;2.40;;;25.20;64.00;;;24.22;39.29;100101.63;10455182;27;97428;-87
2023/05/06 11:16:51;;;;;;;3.50;2.30;;;25.40;62.60;;;24.26;38.13;100091.88;10459514;27;96617;-87
2023/05/06 11:21:57;;;;;;;5.38;2.70;;;25.50;60.70;;;24.32;38.45;100095.44;10400505;27;96747;-88
2023/05/06 11:27:00;;;;;;;3.55;2.67;;;25.70;60.60;;;24.09;38.49;100094.72;10398189;27;96923;-88
2023/05/06 11:32:20;;;;;;;2.45;2.00;;;25.40;60.20;;;23.87;39.34;100094.84;10383285;27;98181;-87
2023/05/06 11:37:25;;;;;;;4.38;2.50;;;25.10;60.70;;;23.58;40.30;100096.97;10406438;27;97117;-87
2023/05/06 11:42:28;;;;;;;4.03;2.10;;;24.80;61.30;;;23.37;41.07;100093.22;10383560;27;96718;-90
2023/05/06 11:47:31;;;;;;;2.65;2.25;;;24.70;61.90;;;23.03;40.63;100095.28;10408843;27;96869;-89
2023/05/06 11:52:34;;;;;;;2.50;2.10;;;24.30;61.20;;;22.76;41.25;100097.03;10432612;27;96469;-89
2023/05/06 11:57:43;;;;;;;3.38;2.58;;;24.10;61.80;;;22.52;42.50;100099.97;10451032;27;96714;-90
2023/05/06 12:02:46;;;;;;;2.97;2.25;;;23.70;62.70;;;22.30;43.13;100101.78;10405709;27;97080;-89
2023/05/06 12:07:50;;;;;;;3.78;2.45;;;23.50;63.40;;;22.11;43.82;100099.34;10421416;27;96839;-89
2023/05/06 12:12:53;;;;;;;4.80;2.70;;;23.30;64.50;;;21.95;44.22;100105.56;10407517;27;96598;-89
2023/05/06 12:17:56;;;;;;;4.07;2.67;;;23.10;65.00;;;21.87;44.46;100100.53;10416810;27;97484;-89
2023/05/06 12:23:14;;;;;;;5.45;2.78;;;23.00;65.30;;;21.87;45.01;100100.53;10444354;27;96535;-89
2023/05/06 12:28:25;;;;;;;3.70;2.20;;;23.00;65.90;;;21.87;44.76;100095.13;10425366;27;96786;-89
2023/05/06 12:33:44;;;;;;;2.70;2.20;;;23.00;65.90;;;21.92;44.64;100106.03;10426607;27;96910;-88
2023/05/06 12:38:56;;;;;;;3.03;2.38;;;23.00;65.90;;;21.99;45.45;100093.16;10423464;27;96735;-90
2023/05/06 12:43:59;;;;;;;3.67;2.70;;;23.10;66.90;;;22.04;44.77;100090.53;10399951;27;96937;-89
2023/05/06 12:49:02;;;;;;;3.75;3.30;;;23.10;66.00;;;22.01;44.85;100101.03;10425924;27;96605;-88
2023/05/06 12:54:29;;;;;;;4.85;2.33;;;23.10;66.10;;;21.90;45.69;100098.16;10450666;27;98233;-89
2023/05/06 12:59:35;;;;;;;3.10;2.20;;;23.00;66.90;;;21.70;44.68;100097.78;10422283;27;96623;-87
2023/05/06 13:04:38;;;;;;;4.90;2.55;;;22.80;66.00;;;21.53;46.35;100102.34;10424676;27;96706;-88
2023/05/06 13:09:41;;;;;;;4.22;3.28;;;22.60;67.20;;;21.44;47.08;100095.69;10421854;27;96667;-89
2023/05/06 13:14:46;;;;;;;3.30;2.67;;;22.50;67.80;;;21.28;49.34;100099.94;10400915;27;97698;-89
2023/05/06 13:19:49;;;;;;;7.80;3.42;;;22.40;70.20;;;21.05;49.98;100098.97;10424044;27;96698;-88
2023/05/06 13:24:52;;;;;;;10.25;3.58;;;22.20;70.60;;;20.94;50.68;100093.59;10448091;27;96543;-87
2023/05/06 13:29:56;;;;;;;9.00;4.03;;;22.10;71.50;;;20.57;51.75;100104.66;10449084;27;97576;-88
2023/05/06 13:34:59;;;;;;;5.57;3.42;;;21.80;72.50;;;20.22;52.00;100118.97;10453680;27;96902;-88
2023/05/06 13:40:03;;;;;;;5.72;4.35;;;21.40;73.30;;;19.81;53.44;100119.81;10428379;27;96587;-89
2023/05/06 13:45:07;;;;;;;4.95;3.53;;;21.00;74.60;;;19.57;55.25;100123.44;10424317;27;96570;-89
2023/05/06 13:50:10;;;;;;;4.53;3.25;;;20.70;76.40;;;19.35;57.25;100132.00;10402420;27;96537;-89
2023/05/06 13:55:14;;;;;;;5.57;3.80;;;20.50;78.50;;;19.07;58.65;100113.72;10385608;28;96544;-89
2023/05/06 14:00:20;;;;;;;4.20;3.33;;;20.20;80.40;;;18.87;61.97;100123.88;10385525;27;97073;-88
2023/05/06 14:05:23;;;;;;;5.82;4.38;;;20.00;83.50;;;18.52;64.77;100120.91;10410549;27;96574;-90
2023/05/06 14:10:27;;;;;;;6.50;4.70;;;19.70;86.70;;;17.98;68.38;100128.56;10399524;27;96941;-90
2023/05/06 14:15:30;;;;;;;5.85;4.97;;;19.20;90.90;;;17.42;72.98;100113.19;10415483;27;97510;-90
2023/05/06 14:20:33;;;;;;;6.75;5.15;;;18.70;93.50;;;17.05;75.61;100120.16;10401095;27;97122;-90
2023/05/06 14:25:36;;;;;;;6.63;5.40;;;18.30;97.00;;;16.76;78.00;100111.56;10445187;27;96586;-90
2023/05/06 14:30:39;;;;;;;6.40;5.32;;;17.90;99.90;;;16.55;79.87;100120.69;10420593;27;98882;-91
2023/05/06 14:35:44;;;;;;;9.65;5.75;;;17.70;99.90;;;16.45;81.33;100116.78;10457561;27;96579;-91
2023/05/06 14:40:49;;;;;;;15.90;14.20;;;17.60;99.90;;;16.46;82.58;100103.16;10399602;27;96717;-91
2023/05/06 14:45:52;;;;;;;8.30;5.82;;;17.60;99.90;;;16.52;83.45;100099.63;10446219;27;97109;-91
2023/05/06 14:50:56;;;;;;;5.78;5.18;;;17.70;99.90;;;16.68;84.36;100092.19;10393338;27;96482;-91
2023/05/06 14:55:59;;;;;;;7.25;5.80;;;17.80;99.90;;;16.77;84.72;100089.06;10405396;27;97395;-89
2023/05/06 15:01:02;;;;;;;6.80;5.57;;;17.90;99.90;;;16.87;85.06;100077.91;10450746;27;96770;-89
2023/05/06 15:06:05;;;;;;;6.80;5.45;;;18.00;99.90;;;16.98;84.45;100074.56;10431530;27;97336;-90
2023/05/06 15:11:08;;;;;;;5.95;5.35;;;18.10;99.90;;;17.15;84.45;100066.81;10421192;27;96579;-89
2023/05/06 15:16:11;;;;;;;5.60;4.75;;;18.30;99.90;;;17.29;84.26;100065.75;10406091;27;96675;-90
2023/05/06 15:21:16;;;;;;;9.38;6.60;;;18.40;99.90;;;17.52;82.53;100059.81;10410533;27;98356;-91
2023/05/06 15:26:20;;;;;;;9.07;4.57;;;18.60;99.90;;;18.36;81.99;100047.78;10394141;27;96566;-91
2023/05/06 15:31:23;;;;;;;4.55;2.90;;;19.60;99.90;;;19.70;73.41;100045.09;10422371;27;97930;-91
2023/05/06 15:36:26;;;;;;;3.72;2.40;;;21.00;99.90;;;20.58;68.02;100036.97;10422170;27;97299;-91
2023/05/06 15:41:34;;;;;;;4.45;2.95;;;22.00;99.90;;;21.03;62.28;100036.25;10383483;27;98640;-90
2023/05/06 15:46:38;;;;;;;3.97;2.85;;;22.40;96.80;;;21.37;61.72;100039.91;10404766;27;99080;-93
2023/05/06 15:51:41;;;;;;;2.60;2.30;;;22.70;95.50;;;21.81;60.47;100040.09;10411949;27;96556;-92
2023/05/06 15:56:45;;;;;;;4.00;2.38;;;23.10;94.90;;;22.37;59.05;100037.47;10437620;27;97501;-91
2023/05/06 16:01:48;;;;;;;3.38;2.63;;;23.70;93.50;;;22.65;57.79;100042.72;10412407;27;98190;-90
2023/05/06 16:06:54;;;;;;;4.97;3.28;;;23.90;92.10;;;22.91;57.60;100045.78;10426248;27;96514;-91
2023/05/06 16:11:57;;;;;;;3.72;3.00;;;24.20;91.60;;;22.96;55.98;100035.00;10431800;27;97273;-91
2023/05/06 16:17:01;;;;;;;4.25;3.40;;;24.50;90.20;;;22.75;57.12;100033.09;10423307;27;97301;-92
2023/05/06 16:22:03;;;;;;;5.45;3.40;;;24.50;90.20;;;22.47;57.98;100032.19;10421391;27;96782;-92
2023/05/06 16:27:07;;;;;;;4.45;3.05;;;24.40;89.90;;;22.51;58.07;100049.59;10417334;27;96703;-91
2023/05/06 16:32:10;;;;;;;5.07;3.60;;;24.40;89.60;;;22.38;58.65;100044.53;10459874;27;96717;-91
2023/05/06 16:37:14;;;;;;;4.15;2.92;;;24.30;89.10;;;22.36;59.54;100058.31;10416679;27;97948;-90
2023/05/06 16:42:17;;;;;;;5.57;4.15;;;24.10;89.20;;;22.04;60.24;100070.78;10416295;27;97114;-91
2023/05/06 16:47:22;;;;;;;6.03;4.07;;;23.70;90.00;;;21.50;62.39;100059.59;10410442;27;96614;-91
2023/05/06 16:52:26;;;;;;;8.00;5.60;;;23.10;90.60;;;20.95;64.55;100050.13;10406635;27;97220;-91
2023/05/06 16:57:32;;;;;;;7.53;5.55;;;22.50;91.60;;;20.53;65.81;100060.31;10390379;27;96698;-91
2023/05/06 17:02:36;;;;;;;5.65;4.03;;;22.00;92.20;;;20.07;66.79;100055.72;10436242;27;97490;-91
2023/05/06 17:07:39;;;;;;;6.80;5.07;;;21.60;92.70;;;19.65;68.14;100067.34;10443692;27;96748;-91
2023/05/06 17:12:42;;;;;;;8.15;5.15;;;21.10;93.30;;;19.37;68.80;100062.56;10441320;27;98390;-91
2023/05/06 17:17:46;;;;;;;13.82;10.82;;;20.80;94.00;;;19.08;69.96;100048.03;10410188;27;97244;-91
2023/05/06 17:22:49;;;;;;;8.50;6.90;;;20.50;94.50;;;18.84;71.61;100052.47;10398374;27;96594;-91
2023/05/06 17:27:52;;;;;;;8.88;7.50;;;20.30;95.20;;;18.66;72.46;100050.56;10433027;27;96815;-90
2023/05/06 17:32:55;;;;;;;11.73;9.32;;;20.10;95.70;;;18.55;73.65;100043.25;10420047;27;96635;-90
2023/05/06 17:37:59;;;;;;;8.65;6.60;;;19.90;96.30;;;18.46;74.56;100034.63;10403630;27;96845;-90
2023/05/06 17:43:02;;;;;;;11.60;9.43;;;19.80;96.90;;;18.33;75.06;100036.66;10424495;27;98525;-89
2023/05/06 17:48:05;;;;;;;13.07;9.93;;;19.70;97.50;;;18.24;75.41;100038.00;10425748;27;99370;-90
2023/05/06 17:53:08;;;;;;;7.93;6.55;;;19.60;98.10;;;18.14;76.33;100047.38;10441933;27;96594;-90
2023/05/06 17:58:11;;;;;;;12.43;8.50;;;19.40;98.60;;;18.05;76.83;100053.25;10449503;27;96707;-90
2023/05/06 18:03:15;;;;;;;8.98;6.38;;;19.30;99.30;;;17.96;77.44;100049.19;10410097;27;97199;-90
2023/05/06 18:08:18;;;;;;;6.93;5.65;;;19.20;99.80;;;17.88;78.47;100050.31;10439904;27;98431;-90
2023/05/06 18:13:22;;;;;;;13.93;10.07;;;19.10;99.90;;;17.76;79.05;100058.25;10388235;27;97336;-90
2023/05/06 18:18:25;;;;;;;11.63;8.70;;;19.00;99.90;;;17.57;79.71;100073.44;10383152;27;96612;-90
2023/05/06 18:23:28;;;;;;;16.65;10.35;;;18.90;99.90;;;17.41;80.75;100076.63;10373934;27;97222;-90
2023/05/06 18:28:38;;;;;;;12.15;8.68;;;18.70;99.90;;;17.31;81.19;100071.72;10380966;28;96685;-90
2023/05/06 18:33:42;;;;;;;;;;;18.60;99.90;;;17.23;81.77;100063.91;10395173;27;98037;-90
2023/05/06 18:38:45;;;;;;;9.13;6.90;;;18.50;99.90;;;17.09;81.35;100065.00;10403339;27;97048;-90
2023/05/06 18:43:48;;;;;;;7.50;5.93;;;18.40;99.90;;;16.97;81.60;100066.69;10438989;27;96846;-91
2023/05/06 18:48:51;;;;;;;12.73;8.52;;;18.30;99.90;;;16.90;81.84;100066.72;10400356;27;97005;-93
2023/05/06 18:53:54;;;;;;;10.38;7.30;;;18.20;99.90;;;16.80;83.01;100067.19;10453763;27;96646;-93
2023/05/06 18:58:57;;;;;;;31.65;16.35;;;18.10;99.90;;;16.71;83.40;100075.69;10418763;27;96657;-93
2023/05/06 19:04:01;;;;;;;17.35;9.35;;;17.90;99.90;;;16.65;83.38;100074.63;10399401;28;96749;-93
2023/05/06 19:09:09;;;;;;;14.27;8.68;;;17.90;99.90;;;16.63;83.58;100086.63;10411467;27;97326;-93
2023/05/06 19:14:12;;;;;;;12.05;7.30;;;17.90;99.90;;;16.60;83.53;100093.19;10430017;27;97402;-93
2023/05/06 19:19:15;;;;;;;17.27;9.05;;;17.90;99.90;;;16.64;83.71;100093.63;10415009;27;96770;-93
2023/05/06 19:24:18;;;;;;;20.95;10.70;;;17.90;99.90;;;16.60;83.57;100101.25;10406963;27;96556;-93
2023/05/06 19:29:21;;;;;;;11.23;8.23;;;17.90;99.90;;;16.56;83.33;100105.41;10423475;27;97590;-89
2023/05/06 19:34:24;;;;;;;10.23;6.88;;;17.80;99.90;;;16.50;82.51;100106.25;10390278;27;96792;-89
2023/05/06 19:39:27;;;;;;;8.45;6.13;;;17.80;99.90;;;16.50;82.94;100109.75;10418744;27;97108;-89
2023/05/06 19:44:30;;;;;;;13.85;9.77;;;17.80;99.90;;;16.48;83.26;100110.97;10420464;27;96737;-91
2023/05/06 19:49:33;;;;;;;10.38;6.95;;;17.80;99.90;;;16.46;82.78;100113.03;10400023;27;98424;-89
2023/05/06 19:54:36;;;;;;;9.48;6.13;;;17.80;99.90;;;16.38;82.60;100126.69;10454878;27;98446;-90
2023/05/06 19:59:39;;;;;;;6.13;5.45;;;17.70;99.90;;;16.29;82.66;100129.56;10404117;27;96969;-89
2023/05/06 20:04:43;;;;;;;6.55;5.72;;;17.60;99.90;;;16.19;82.30;100134.53;10422012;27;96810;-89
2023/05/06 20:09:45;;;;;;;7.35;5.03;;;17.50;99.90;;;16.09;83.40;100139.47;10410801;27;97375;-90
2023/05/06 20:14:48;;;;;;;6.97;5.22;;;17.40;99.90;;;16.04;83.82;100152.66;10406222;27;96648;-89
2023/05/06 20:19:52;;;;;;;6.93;5.50;;;17.30;99.90;;;16.00;84.05;100154.06;10456969;27;97602;-89
2023/05/06 20:25:11;;;;;;;6.32;5.43;;;17.30;99.90;;;16.01;84.55;100143.16;10456180;27;98496;-90
2023/05/06 20:30:15;;;;;;;8.93;7.63;;;17.30;99.90;;;16.01;85.07;100131.59;10447624;27;96640;-90
2023/05/06 20:35:18;;;;;;;7.28;5.88;;;17.30;99.90;;;15.99;85.23;100134.50;10458296;27;96604;-89
2023/05/06 20:40:21;;;;;;;8.52;6.40;;;17.30;99.90;;;15.99;85.09;100128.31;10449762;27;97976;-90
2023/05/06 20:45:24;;;;;;;8.63;6.57;;;17.30;99.90;;;15.98;85.02;100110.59;10454546;27;97399;-89
2023/05/06 20:50:29;;;;;;;8.70;5.60;;;17.30;99.90;;;15.97;84.72;100115.13;10443547;27;96937;-90
2023/05/06 20:55:33;;;;;;;8.30;6.60;;;17.30;99.90;;;15.89;84.99;100107.25;10395511;27;98432;-90